Blythe, Georgia
Current Conditions -  °F | °C
As of 5:53 PM on Wednesday 26 Nov 2014 (Local Time) from KAGS Reporting Station
Clear Clear  
Wind Chill: 52°   Ceiling: Unl
Heat Index: 52°   Visibility: 10mi
Dew Point: 32°   Wind: 3mph
Humidity: 47%   Direction: 240°WSW
Pressure: 30.06"   Gusts: NA
Location:  33.29°N, 82.2°W
Report Text: KAGS 262253Z 24003KT 10SM CLR 11/00 A3006 RMK AO2 SLP179 T01110000
Loading
Personal Weather Stations






























Interactive Weather Map New forecast layout! Learn more

10-Day Weather Forecast

Advertisements
Track Severe Weather on mobile